createdAt,value
2019-02-24T00:04:13.935Z,67.10
2019-02-24T00:06:56.070Z,66.50
2019-02-24T00:09:38.166Z,67.00
2019-02-24T00:12:20.023Z,67.00
2019-02-24T00:15:02.082Z,67.60
2019-02-24T00:17:44.606Z,67.20
2019-02-24T00:20:26.820Z,67.40
2019-02-24T00:23:09.268Z,67.20
2019-02-24T00:25:51.032Z,67.30
2019-02-24T00:28:33.358Z,67.60
2019-02-24T00:31:15.919Z,67.10
2019-02-24T00:33:57.698Z,67.60
2019-02-24T00:36:39.613Z,67.80
2019-02-24T00:39:21.412Z,67.20
2019-02-24T00:42:03.212Z,67.30
2019-02-24T00:44:44.994Z,67.20
2019-02-24T00:47:27.323Z,66.40
2019-02-24T00:50:09.313Z,66.30
2019-02-24T00:52:51.508Z,66.30
2019-02-24T00:55:33.400Z,66.10
2019-02-24T00:58:16.362Z,66.50
2019-02-24T01:00:58.392Z,65.40
2019-02-24T01:03:40.872Z,65.40
2019-02-24T01:06:23.491Z,65.80
2019-02-24T01:09:05.699Z,66.00
2019-02-24T01:11:47.845Z,65.50
2019-02-24T01:14:29.832Z,65.60
2019-02-24T01:17:12.005Z,65.60
2019-02-24T01:19:53.929Z,65.60
2019-02-24T01:22:36.073Z,65.50
2019-02-24T01:25:18.472Z,65.30
2019-02-24T01:28:00.440Z,65.90
2019-02-24T01:30:42.375Z,65.10
2019-02-24T01:33:24.990Z,65.30
2019-02-24T01:36:07.439Z,65.10
2019-02-24T01:38:49.355Z,65.40
2019-02-24T01:41:31.774Z,65.10
2019-02-24T01:44:13.760Z,65.00
2019-02-24T01:46:56.105Z,65.60
2019-02-24T01:49:37.990Z,66.10
2019-02-24T01:52:20.655Z,66.90
2019-02-24T01:55:02.841Z,66.40
2019-02-24T01:57:45.263Z,66.70
2019-02-24T02:00:27.851Z,67.40
2019-02-24T02:03:10.129Z,68.70
2019-02-24T02:05:52.372Z,68.60
2019-02-24T02:08:34.830Z,68.20
2019-02-24T02:11:17.137Z,68.20
2019-02-24T02:13:59.490Z,68.70
2019-02-24T02:16:41.349Z,69.30
2019-02-24T02:19:23.772Z,69.30
2019-02-24T02:22:05.956Z,69.80
2019-02-24T02:24:48.336Z,69.80
2019-02-24T02:27:30.703Z,69.60
2019-02-24T02:30:12.773Z,69.80
2019-02-24T02:32:54.808Z,70.40
2019-02-24T02:35:37.424Z,71.00
2019-02-24T02:38:19.591Z,71.60
2019-02-24T02:41:02.172Z,72.30
2019-02-24T02:43:44.516Z,72.60
2019-02-24T02:46:26.409Z,72.30
2019-02-24T02:49:08.398Z,71.90
2019-02-24T02:51:50.304Z,71.70
2019-02-24T02:54:32.692Z,71.80
2019-02-24T02:57:15.025Z,72.00
2019-02-24T02:59:57.071Z,71.50
2019-02-24T03:02:38.799Z,71.50
2019-02-24T03:05:21.416Z,72.00
2019-02-24T03:08:26.221Z,72.10
2019-02-24T03:11:14.842Z,71.90
2019-02-24T03:13:57.108Z,71.20
2019-02-24T03:16:39.431Z,71.80
2019-02-24T03:19:22.070Z,72.90
2019-02-24T03:22:04.419Z,73.10
2019-02-24T03:24:46.713Z,72.30
2019-02-24T03:27:29.167Z,71.40
2019-02-24T03:30:11.802Z,71.10
2019-02-24T03:32:53.722Z,71.60
2019-02-24T03:35:35.792Z,71.90
2019-02-24T03:38:18.375Z,71.10
2019-02-24T03:41:00.506Z,72.60
2019-02-24T03:43:42.540Z,73.20
2019-02-24T03:46:25.076Z,73.60
2019-02-24T03:49:08.130Z,73.80
2019-02-24T03:51:50.219Z,74.30
2019-02-24T03:54:32.235Z,74.50
2019-02-24T03:57:14.692Z,75.30
2019-02-24T03:59:56.727Z,74.50
2019-02-24T04:02:38.780Z,75.20
2019-02-24T04:05:20.920Z,75.10
2019-02-24T04:08:03.220Z,74.90
2019-02-24T04:10:45.196Z,74.50
2019-02-24T04:13:27.391Z,73.90
2019-02-24T04:16:09.777Z,73.80
2019-02-24T04:18:52.006Z,73.70
2019-02-24T04:21:33.831Z,74.10
2019-02-24T04:24:16.448Z,74.70
2019-02-24T04:26:59.067Z,75.10
2019-02-24T04:29:41.458Z,75.00
2019-02-24T04:32:23.409Z,74.80
2019-02-24T04:35:05.377Z,75.50
2019-02-24T04:37:47.799Z,75.10
2019-02-24T04:40:30.193Z,74.90
2019-02-24T04:43:12.552Z,75.00
2019-02-24T04:45:54.424Z,75.20
2019-02-24T04:48:36.993Z,75.80
2019-02-24T04:51:18.827Z,75.20
2019-02-24T04:54:01.500Z,75.50
2019-02-24T04:56:43.796Z,75.50
2019-02-24T04:59:34.768Z,75.90
2019-02-24T05:02:09.933Z,76.00
2019-02-24T05:04:52.431Z,75.70
2019-02-24T05:07:35.106Z,75.90
2019-02-24T05:10:17.176Z,76.10
2019-02-24T05:12:59.104Z,76.00
2019-02-24T05:15:41.795Z,76.10
2019-02-24T05:18:23.786Z,76.40
2019-02-24T05:21:06.100Z,76.30
2019-02-24T05:23:48.422Z,77.10
2019-02-24T05:26:30.477Z,77.60
2019-02-24T05:29:12.673Z,77.40
2019-02-24T05:31:55.262Z,78.50
2019-02-24T05:34:37.671Z,77.70
2019-02-24T05:37:19.658Z,77.60
2019-02-24T05:40:01.710Z,77.40
2019-02-24T05:42:44.386Z,77.10
2019-02-24T05:45:26.561Z,76.80
2019-02-24T05:48:07.341Z,76.70
2019-02-24T05:50:49.873Z,77.30
2019-02-24T05:53:32.070Z,77.40
2019-02-24T05:56:14.265Z,78.30
2019-02-24T05:58:56.571Z,78.40
2019-02-24T06:01:38.771Z,77.80
2019-02-24T06:04:20.699Z,77.50
2019-02-24T06:07:02.975Z,77.40
2019-02-24T06:09:44.902Z,77.70
2019-02-24T06:12:26.945Z,78.00
2019-02-24T06:15:09.541Z,78.30
2019-02-24T06:17:52.090Z,77.90
2019-02-24T06:20:34.327Z,77.50
2019-02-24T06:23:16.239Z,77.10
2019-02-24T06:25:58.589Z,77.20
2019-02-24T06:28:40.785Z,77.40
2019-02-24T06:31:23.151Z,77.50
2019-02-24T06:34:04.928Z,77.60
2019-02-24T06:36:47.462Z,77.80
2019-02-24T06:39:29.554Z,78.00
2019-02-24T06:42:11.484Z,77.90
2019-02-24T06:44:53.512Z,77.90
2019-02-24T06:47:35.644Z,77.70
2019-02-24T06:50:17.633Z,77.90
2019-02-24T06:53:00.090Z,78.20
2019-02-24T06:55:42.236Z,77.90
2019-02-24T06:58:24.698Z,78.50
2019-02-24T07:01:06.763Z,79.00
2019-02-24T07:03:49.179Z,79.20
2019-02-24T07:06:31.143Z,78.80
2019-02-24T07:09:13.400Z,79.60
2019-02-24T07:11:55.376Z,79.40
2019-02-24T07:14:37.323Z,79.40
2019-02-24T07:17:19.695Z,78.90
2019-02-24T07:20:02.208Z,78.80
2019-02-24T07:22:33.080Z,78.80
2019-02-24T07:25:04.022Z,79.10
2019-02-24T07:27:34.628Z,79.40
2019-02-24T07:30:05.460Z,78.60
2019-02-24T07:32:36.243Z,78.60
2019-02-24T07:35:07.051Z,78.30
2019-02-24T07:37:37.652Z,78.40
2019-02-24T07:40:08.291Z,78.20
2019-02-24T07:42:38.920Z,78.10
2019-02-24T07:45:09.711Z,78.20
2019-02-24T07:47:40.339Z,77.70
2019-02-24T07:50:11.371Z,77.50
2019-02-24T07:52:42.429Z,77.10
2019-02-24T07:55:13.044Z,78.20
2019-02-24T07:57:43.698Z,78.20
2019-02-24T08:00:14.494Z,76.60
2019-02-24T08:02:45.350Z,77.30
2019-02-24T08:05:15.942Z,77.10
2019-02-24T08:07:46.581Z,76.00
2019-02-24T08:10:17.264Z,74.80
2019-02-24T08:12:47.934Z,75.40
2019-02-24T08:15:18.586Z,76.40
2019-02-24T08:17:49.258Z,77.50
2019-02-24T08:20:19.948Z,76.30
2019-02-24T08:22:50.614Z,74.30
2019-02-24T08:25:21.586Z,74.40
2019-02-24T08:27:54.063Z,73.10
2019-02-24T08:30:25.210Z,73.10
2019-02-24T08:32:55.924Z,74.70
2019-02-24T08:35:26.572Z,74.10
2019-02-24T08:37:57.341Z,72.70
2019-02-24T08:40:28.030Z,72.00
2019-02-24T08:42:58.975Z,72.70
2019-02-24T08:45:30.431Z,73.20
2019-02-24T08:48:01.239Z,74.00
2019-02-24T08:50:32.120Z,72.40
2019-02-24T08:53:02.792Z,71.20
2019-02-24T08:55:34.108Z,73.50
2019-02-24T08:58:04.785Z,72.80
2019-02-24T09:00:35.464Z,70.90
2019-02-24T09:03:06.376Z,70.90
2019-02-24T09:05:37.506Z,71.00
2019-02-24T09:08:08.821Z,71.20
2019-02-24T09:10:39.893Z,70.90
2019-02-24T09:13:11.179Z,71.80
2019-02-24T09:15:42.177Z,72.70
2019-02-24T09:18:13.155Z,71.90
2019-02-24T09:20:44.174Z,70.60
2019-02-24T09:23:15.502Z,69.80
2019-02-24T09:25:48.924Z,70.00
2019-02-24T09:28:20.035Z,69.60
2019-02-24T09:31:00.132Z,69.80
2019-02-24T09:33:23.976Z,69.80
2019-02-24T09:35:54.956Z,71.00
2019-02-24T09:38:25.673Z,70.50
2019-02-24T09:40:56.309Z,69.30
2019-02-24T09:43:27.020Z,69.00
2019-02-24T09:45:57.626Z,70.00
2019-02-24T09:48:28.297Z,67.60
2019-02-24T09:50:58.896Z,68.30
2019-02-24T09:53:29.534Z,67.90
2019-02-24T09:56:00.173Z,67.20
2019-02-24T09:58:32.030Z,67.90
2019-02-24T10:01:10.277Z,68.50
2019-02-24T10:03:35.018Z,68.30
2019-02-24T10:06:05.627Z,67.50
2019-02-24T10:08:36.310Z,68.20
2019-02-24T10:11:07.059Z,65.70
2019-02-24T10:13:37.692Z,66.70
2019-02-24T10:16:08.704Z,66.20
2019-02-24T10:18:39.333Z,66.40
2019-02-24T10:21:09.972Z,67.00
2019-02-24T10:23:40.658Z,66.00
2019-02-24T10:26:11.297Z,65.40
2019-02-24T10:28:42.014Z,66.20
2019-02-24T10:31:19.634Z,66.20
2019-02-24T10:33:45.192Z,66.10
2019-02-24T10:36:15.996Z,67.40
2019-02-24T10:38:47.128Z,68.70
2019-02-24T10:41:20.079Z,69.40
2019-02-24T10:43:50.841Z,71.90
2019-02-24T10:46:21.798Z,70.20
2019-02-24T10:48:52.657Z,69.60
2019-02-24T10:51:25.358Z,66.10
2019-02-24T10:53:55.586Z,67.70
2019-02-24T10:56:26.612Z,68.70
2019-02-24T10:58:57.238Z,67.90
2019-02-24T11:01:29.827Z,66.10
2019-02-24T11:04:00.250Z,64.10
2019-02-24T11:06:30.896Z,65.20
2019-02-24T11:09:01.516Z,69.30
2019-02-24T11:11:32.484Z,65.40
2019-02-24T11:14:03.820Z,67.20
2019-02-24T11:16:34.878Z,63.10
2019-02-24T11:19:05.752Z,62.60
2019-02-24T11:21:36.574Z,64.80
2019-02-24T11:24:07.290Z,68.10
2019-02-24T11:26:37.947Z,68.90
2019-02-24T11:29:10.526Z,67.90
2019-02-24T11:31:42.231Z,68.80
2019-02-24T11:34:13.556Z,68.80
2019-02-24T11:36:44.555Z,72.40
2019-02-24T11:39:15.909Z,70.60
2019-02-24T11:41:46.660Z,68.90
2019-02-24T11:44:17.954Z,68.60
2019-02-24T11:46:48.884Z,73.40
2019-02-24T11:49:20.053Z,72.60
2019-02-24T11:51:50.787Z,74.70
2019-02-24T11:54:21.454Z,73.30
2019-02-24T11:56:52.355Z,71.00
2019-02-24T11:59:23.096Z,68.10
2019-02-24T12:01:53.771Z,70.90
2019-02-24T12:04:24.403Z,68.00
2019-02-24T12:06:55.130Z,65.40
2019-02-24T12:09:25.785Z,62.60
2019-02-24T12:11:56.507Z,65.00
2019-02-24T12:14:27.759Z,65.40
2019-02-24T12:16:58.387Z,68.50
2019-02-24T12:19:29.164Z,63.10
2019-02-24T12:21:59.839Z,62.30
2019-02-24T12:24:30.532Z,70.50
2019-02-24T12:27:01.658Z,68.50
2019-02-24T12:29:32.285Z,62.90
2019-02-24T12:32:03.217Z,61.20
2019-02-24T12:34:37.228Z,61.90
2019-02-24T12:37:07.896Z,60.40
2019-02-24T12:39:38.506Z,62.10
2019-02-24T12:42:09.149Z,60.60
2019-02-24T12:44:39.877Z,62.90
2019-02-24T12:47:11.862Z,58.30
2019-02-24T12:49:42.677Z,58.30
2019-02-24T12:52:13.304Z,61.70
2019-02-24T12:54:44.001Z,60.50
2019-02-24T12:57:14.748Z,59.10
2019-02-24T12:59:45.454Z,59.80
2019-02-24T13:02:16.616Z,58.20
2019-02-24T13:04:47.365Z,56.60
2019-02-24T13:07:18.054Z,58.60
2019-02-24T13:09:48.687Z,60.20
2019-02-24T13:12:19.558Z,62.40
2019-02-24T13:14:50.558Z,63.70
2019-02-24T13:17:21.217Z,63.70
2019-02-24T13:19:52.197Z,62.60
2019-02-24T13:22:22.787Z,62.70
2019-02-24T13:24:53.439Z,63.20
2019-02-24T13:27:24.114Z,59.50
2019-02-24T13:29:54.724Z,61.10
2019-02-24T13:32:25.382Z,62.10
2019-02-24T13:34:56.011Z,62.30
2019-02-24T13:37:26.678Z,61.00
2019-02-24T13:39:57.423Z,59.50
2019-02-24T13:42:28.088Z,61.00
2019-02-24T13:44:58.703Z,60.60
2019-02-24T13:47:29.373Z,61.50
2019-02-24T13:50:00.022Z,66.60
2019-02-24T13:52:30.659Z,68.20
2019-02-24T13:55:01.295Z,64.10
2019-02-24T13:57:32.356Z,62.30
2019-02-24T14:00:03.030Z,59.60
2019-02-24T14:02:33.664Z,61.40
2019-02-24T14:05:04.271Z,60.80
2019-02-24T14:07:34.994Z,60.10
2019-02-24T14:10:05.955Z,58.20
2019-02-24T14:12:36.686Z,64.30
2019-02-24T14:15:07.998Z,62.40
2019-02-24T14:17:38.674Z,62.80
2019-02-24T14:20:10.298Z,62.90
2019-02-24T14:22:41.000Z,60.40
2019-02-24T14:25:30.713Z,64.10
2019-02-24T14:28:01.572Z,60.40
2019-02-24T14:30:32.419Z,62.80
2019-02-24T14:33:03.089Z,63.40
2019-02-24T14:35:33.720Z,62.30
2019-02-24T14:38:04.499Z,61.70
2019-02-24T14:40:35.178Z,61.30
2019-02-24T14:43:05.815Z,65.50
2019-02-24T14:45:36.526Z,64.40
2019-02-24T14:48:07.482Z,61.80
2019-02-24T14:50:38.178Z,62.30
2019-02-24T14:53:08.764Z,63.40
2019-02-24T14:55:39.596Z,62.20
2019-02-24T14:58:10.785Z,63.90
2019-02-24T15:00:41.550Z,64.10
2019-02-24T15:03:12.548Z,65.80
2019-02-24T15:05:43.740Z,64.40
2019-02-24T15:08:15.274Z,61.70
2019-02-24T15:10:48.331Z,62.30
2019-02-24T15:13:19.451Z,60.10
2019-02-24T15:15:50.420Z,59.50
2019-02-24T15:18:21.235Z,60.80
2019-02-24T15:20:52.204Z,61.20
2019-02-24T15:23:24.234Z,60.80
2019-02-24T15:25:55.151Z,61.80
2019-02-24T15:28:27.712Z,61.00
2019-02-24T15:30:58.449Z,60.20
2019-02-24T15:33:29.042Z,59.70
2019-02-24T15:35:59.696Z,59.20
2019-02-24T15:38:30.316Z,60.90
2019-02-24T15:41:00.960Z,61.20
2019-02-24T15:43:31.867Z,60.60
2019-02-24T15:46:02.517Z,59.80
2019-02-24T15:48:33.447Z,60.30
2019-02-24T15:51:04.127Z,59.00
2019-02-24T15:53:34.799Z,57.40
2019-02-24T15:56:05.590Z,57.30
2019-02-24T15:58:36.640Z,60.50
2019-02-24T16:01:07.308Z,60.60
2019-02-24T16:03:38.291Z,60.10
2019-02-24T16:06:09.293Z,60.70
2019-02-24T16:08:39.912Z,60.60
2019-02-24T16:11:10.706Z,60.30
2019-02-24T16:13:41.422Z,59.30
2019-02-24T16:16:12.534Z,60.10
2019-02-24T16:18:45.087Z,60.70
2019-02-24T16:21:17.794Z,60.10
2019-02-24T16:23:48.416Z,60.40
2019-02-24T16:26:19.123Z,60.00
2019-02-24T16:28:51.553Z,60.60
2019-02-24T16:31:22.805Z,61.00
2019-02-24T16:33:53.914Z,61.80
2019-02-24T16:36:24.817Z,61.30
2019-02-24T16:38:55.990Z,61.20
2019-02-24T16:41:27.902Z,59.80
2019-02-24T16:43:59.829Z,59.10
2019-02-24T16:46:30.746Z,59.10
2019-02-24T16:49:03.483Z,58.80
2019-02-24T16:51:34.431Z,57.70
2019-02-24T16:54:05.177Z,59.40
2019-02-24T16:56:55.245Z,58.80
2019-02-24T16:59:26.150Z,58.50
2019-02-24T17:01:57.087Z,60.10
2019-02-24T17:04:29.518Z,61.10
2019-02-24T17:07:00.582Z,61.60
2019-02-24T17:09:31.364Z,62.60
2019-02-24T17:12:02.489Z,61.80
2019-02-24T17:14:33.404Z,61.70
2019-02-24T17:17:04.349Z,62.30
2019-02-24T17:19:35.525Z,62.60
2019-02-24T17:22:06.298Z,62.40
2019-02-24T17:24:37.275Z,63.60
2019-02-24T17:27:10.200Z,63.20
2019-02-24T17:29:40.941Z,63.40
2019-02-24T17:32:13.897Z,63.70
2019-02-24T17:34:46.564Z,63.50
2019-02-24T17:37:20.094Z,63.50
2019-02-24T17:39:51.306Z,63.40
2019-02-24T17:42:22.205Z,63.50
2019-02-24T17:45:00.802Z,64.30
2019-02-24T17:47:34.768Z,64.60
2019-02-24T17:50:05.761Z,65.10
2019-02-24T17:52:36.843Z,64.10
2019-02-24T17:55:09.176Z,64.80
2019-02-24T17:57:40.183Z,66.60
2019-02-24T18:00:17.338Z,66.20
2019-02-24T18:02:49.921Z,66.60
2019-02-24T18:05:30.079Z,66.40
2019-02-24T18:08:00.951Z,66.60
2019-02-24T18:10:31.862Z,66.20
2019-02-24T18:13:06.076Z,66.30
2019-02-24T18:15:38.033Z,66.50
2019-02-24T18:18:08.670Z,67.10
2019-02-24T18:20:59.997Z,68.10
2019-02-24T18:23:31.901Z,67.80
2019-02-24T18:26:02.644Z,67.50
2019-02-24T18:28:33.320Z,67.40
2019-02-24T18:31:04.649Z,66.90
2019-02-24T18:33:35.679Z,66.90
2019-02-24T18:36:06.461Z,66.80
2019-02-24T18:38:37.406Z,65.20
2019-02-24T18:41:08.223Z,66.40
2019-02-24T18:43:40.482Z,66.20
2019-02-24T18:46:11.826Z,66.20
2019-02-24T18:48:42.551Z,67.90
2019-02-24T18:51:16.911Z,67.60
2019-02-24T18:53:48.101Z,67.50
2019-02-24T18:56:18.873Z,67.90
2019-02-24T18:58:49.855Z,68.50
2019-02-24T19:01:21.687Z,68.30
2019-02-24T19:03:57.727Z,68.80
2019-02-24T19:06:26.634Z,68.80
2019-02-24T19:08:58.719Z,69.80
2019-02-24T19:11:29.442Z,71.80
2019-02-24T19:14:03.019Z,71.20
2019-02-24T19:20:22.854Z,71.70
2019-02-24T19:26:21.616Z,70.60
2019-02-24T19:29:11.355Z,70.90
2019-02-24T19:32:01.060Z,70.00
2019-02-24T19:38:20.787Z,70.30
2019-02-24T19:44:40.068Z,70.20
2019-02-24T19:50:52.012Z,70.30
2019-02-24T19:53:34.559Z,70.50
2019-02-24T19:56:16.868Z,69.30
2019-02-24T19:58:58.800Z,68.70
2019-02-24T20:01:41.280Z,68.60
2019-02-24T20:04:23.384Z,68.60
2019-02-24T20:07:05.865Z,68.50
2019-02-24T20:09:48.058Z,67.10
2019-02-24T20:12:30.584Z,68.20
2019-02-24T20:15:12.948Z,67.00
2019-02-24T20:17:54.948Z,66.90
2019-02-24T20:20:37.436Z,67.10
2019-02-24T20:23:20.020Z,67.30
2019-02-24T20:26:02.349Z,68.30
2019-02-24T20:28:45.075Z,67.50
2019-02-24T20:31:27.915Z,67.20
2019-02-24T20:34:10.711Z,67.40
2019-02-24T20:36:52.899Z,67.80
2019-02-24T20:39:35.263Z,68.40
2019-02-24T20:42:17.381Z,69.80
2019-02-24T20:44:59.883Z,70.40
2019-02-24T20:47:41.868Z,71.60
2019-02-24T20:50:23.834Z,70.60
2019-02-24T20:53:06.267Z,70.30
2019-02-24T20:55:48.142Z,70.40
2019-02-24T20:58:30.661Z,71.10
2019-02-24T21:01:12.571Z,70.80
2019-02-24T21:03:54.959Z,70.70
2019-02-24T21:06:37.080Z,70.20
2019-02-24T21:09:19.644Z,70.40
2019-02-24T21:12:01.951Z,70.00
2019-02-24T21:14:44.575Z,69.40
2019-02-24T21:17:26.501Z,69.90
2019-02-24T21:20:09.032Z,69.80
2019-02-24T21:22:51.194Z,68.80
2019-02-24T21:25:33.673Z,69.60
2019-02-24T21:28:15.847Z,69.60
2019-02-24T21:30:57.833Z,69.60
2019-02-24T21:33:42.603Z,69.30
2019-02-24T21:36:24.747Z,69.30
2019-02-24T21:39:06.961Z,69.40
2019-02-24T21:41:49.272Z,69.40
2019-02-24T21:44:31.483Z,68.90
2019-02-24T21:47:14.144Z,68.30
2019-02-24T21:49:56.592Z,68.60
2019-02-24T21:52:38.979Z,68.30
2019-02-24T21:55:21.319Z,68.20
2019-02-24T21:58:04.395Z,68.60
2019-02-24T22:00:47.152Z,68.60
2019-02-24T22:03:29.223Z,68.30
2019-02-24T22:06:11.396Z,68.50
2019-02-24T22:08:53.227Z,68.00
2019-02-24T22:11:37.003Z,68.30
2019-02-24T22:14:19.528Z,68.00
2019-02-24T22:17:01.525Z,68.80
2019-02-24T22:19:43.888Z,69.30
2019-02-24T22:22:25.820Z,70.10
2019-02-24T22:25:08.380Z,70.60
2019-02-24T22:27:51.019Z,71.10
2019-02-24T22:30:33.317Z,71.60
2019-02-24T22:33:15.727Z,70.80
2019-02-24T22:35:57.905Z,70.10
2019-02-24T22:38:40.128Z,70.80
2019-02-24T22:41:22.644Z,70.30
2019-02-24T22:44:04.988Z,70.10
2019-02-24T22:46:47.021Z,69.50
2019-02-24T22:49:29.048Z,69.00
2019-02-24T22:52:11.125Z,70.00
2019-02-24T22:54:53.102Z,69.60
2019-02-24T22:57:35.022Z,69.70
2019-02-24T23:00:17.268Z,69.80
2019-02-24T23:02:59.288Z,69.60
2019-02-24T23:05:41.920Z,69.10
2019-02-24T23:08:24.345Z,68.10
2019-02-24T23:11:06.500Z,67.80
2019-02-24T23:13:48.922Z,68.20
2019-02-24T23:16:31.057Z,68.60
2019-02-24T23:19:13.687Z,69.60
2019-02-24T23:21:55.431Z,70.00
2019-02-24T23:24:37.823Z,70.40
2019-02-24T23:27:20.173Z,70.20
2019-02-24T23:30:02.549Z,70.40
2019-02-24T23:32:44.860Z,69.80
2019-02-24T23:35:27.290Z,70.50
2019-02-24T23:38:09.664Z,70.20
2019-02-24T23:40:52.162Z,71.10
2019-02-24T23:43:34.643Z,71.20
2019-02-24T23:46:16.782Z,71.00
2019-02-24T23:48:59.073Z,70.40
2019-02-24T23:51:40.932Z,69.90
2019-02-24T23:54:22.749Z,68.50
2019-02-24T23:57:04.655Z,68.30
2019-02-24T23:59:46.676Z,68.20
